sensor_id;sensor_type;location;lat;lon;timestamp;temperature;humidity
13344;DHT22;6741;48.964;9.406;2023-11-21T00:01:06;7.80;99.90
13344;DHT22;6741;48.964;9.406;2023-11-21T00:03:35;7.80;99.90
13344;DHT22;6741;48.964;9.406;2023-11-21T00:06:02;7.80;99.90
13344;DHT22;6741;48.964;9.406;2023-11-21T00:08:30;7.80;99.90
13344;DHT22;6741;48.964;9.406;2023-11-21T00:10:57;7.80;99.90
13344;DHT22;6741;48.964;9.406;2023-11-21T00:13:25;7.80;99.90
13344;DHT22;6741;48.964;9.406;2023-11-21T00:15:52;7.80;99.90
13344;DHT22;6741;48.964;9.406;2023-11-21T00:18:20;7.70;99.90
13344;DHT22;6741;48.964;9.406;2023-11-21T00:20:48;7.80;99.90
13344;DHT22;6741;48.964;9.406;2023-11-21T00:23:15;7.80;99.90
13344;DHT22;6741;48.964;9.406;2023-11-21T00:25:42;7.70;99.90
13344;DHT22;6741;48.964;9.406;2023-11-21T00:28:09;7.70;99.90
13344;DHT22;6741;48.964;9.406;2023-11-21T00:30:36;7.70;99.90
13344;DHT22;6741;48.964;9.406;2023-11-21T00:33:03;7.80;99.90
13344;DHT22;6741;48.964;9.406;2023-11-21T00:35:30;7.80;99.90
13344;DHT22;6741;48.964;9.406;2023-11-21T00:37:58;7.70;99.90
13344;DHT22;6741;48.964;9.406;2023-11-21T00:40:25;7.70;99.90
13344;DHT22;6741;48.964;9.406;2023-11-21T00:42:52;7.70;99.90
13344;DHT22;6741;48.964;9.406;2023-11-21T00:45:19;7.70;99.90
13344;DHT22;6741;48.964;9.406;2023-11-21T00:47:46;7.70;99.90
13344;DHT22;6741;48.964;9.406;2023-11-21T00:50:13;7.70;99.90
13344;DHT22;6741;48.964;9.406;2023-11-21T00:52:39;7.70;99.90
13344;DHT22;6741;48.964;9.406;2023-11-21T00:55:08;7.70;99.90
13344;DHT22;6741;48.964;9.406;2023-11-21T00:57:35;7.80;99.90
13344;DHT22;6741;48.964;9.406;2023-11-21T01:00:03;7.80;99.90
13344;DHT22;6741;48.964;9.406;2023-11-21T01:02:33;7.70;99.90
13344;DHT22;6741;48.964;9.406;2023-11-21T01:05:01;7.70;99.90
13344;DHT22;6741;48.964;9.406;2023-11-21T01:07:28;7.70;99.90
13344;DHT22;6741;48.964;9.406;2023-11-21T01:09:54;7.70;99.90
13344;DHT22;6741;48.964;9.406;2023-11-21T01:12:23;7.70;99.90
13344;DHT22;6741;48.964;9.406;2023-11-21T01:14:50;7.70;99.90
13344;DHT22;6741;48.964;9.406;2023-11-21T01:17:17;7.70;99.90
13344;DHT22;6741;48.964;9.406;2023-11-21T01:19:44;7.70;99.90
13344;DHT22;6741;48.964;9.406;2023-11-21T01:22:11;7.70;99.90
13344;DHT22;6741;48.964;9.406;2023-11-21T01:24:38;7.50;99.90
13344;DHT22;6741;48.964;9.406;2023-11-21T01:27:05;7.60;99.90
13344;DHT22;6741;48.964;9.406;2023-11-21T01:29:34;7.60;99.90
13344;DHT22;6741;48.964;9.406;2023-11-21T01:32:02;7.60;99.90
13344;DHT22;6741;48.964;9.406;2023-11-21T01:34:30;7.60;99.90
13344;DHT22;6741;48.964;9.406;2023-11-21T01:36:57;7.60;99.90
13344;DHT22;6741;48.964;9.406;2023-11-21T01:39:24;7.60;99.90
13344;DHT22;6741;48.964;9.406;2023-11-21T01:41:52;7.70;99.90
13344;DHT22;6741;48.964;9.406;2023-11-21T01:44:19;7.70;99.90
13344;DHT22;6741;48.964;9.406;2023-11-21T01:46:47;7.70;99.90
13344;DHT22;6741;48.964;9.406;2023-11-21T01:49:14;7.70;99.90
13344;DHT22;6741;48.964;9.406;2023-11-21T01:51:43;7.70;99.90
13344;DHT22;6741;48.964;9.406;2023-11-21T01:54:14;7.70;99.90
13344;DHT22;6741;48.964;9.406;2023-11-21T01:56:42;7.70;99.90
13344;DHT22;6741;48.964;9.406;2023-11-21T01:59:10;7.70;99.90
13344;DHT22;6741;48.964;9.406;2023-11-21T02:01:38;7.70;99.90
13344;DHT22;6741;48.964;9.406;2023-11-21T02:04:08;7.70;99.90
13344;DHT22;6741;48.964;9.406;2023-11-21T02:06:35;7.70;99.90
13344;DHT22;6741;48.964;9.406;2023-11-21T02:09:02;7.70;99.90
13344;DHT22;6741;48.964;9.406;2023-11-21T02:11:30;7.70;99.90
13344;DHT22;6741;48.964;9.406;2023-11-21T02:14:00;7.70;99.90
13344;DHT22;6741;48.964;9.406;2023-11-21T02:16:27;7.70;99.90
13344;DHT22;6741;48.964;9.406;2023-11-21T02:18:57;7.70;99.90
13344;DHT22;6741;48.964;9.406;2023-11-21T02:21:26;7.70;99.90
13344;DHT22;6741;48.964;9.406;2023-11-21T02:23:56;7.70;99.90
13344;DHT22;6741;48.964;9.406;2023-11-21T02:26:22;7.80;99.90
13344;DHT22;6741;48.964;9.406;2023-11-21T02:28:51;7.80;99.90
13344;DHT22;6741;48.964;9.406;2023-11-21T02:31:18;7.80;99.90
13344;DHT22;6741;48.964;9.406;2023-11-21T02:33:45;7.80;99.90
13344;DHT22;6741;48.964;9.406;2023-11-21T02:36:12;7.80;99.90
13344;DHT22;6741;48.964;9.406;2023-11-21T02:38:39;7.80;99.90
13344;DHT22;6741;48.964;9.406;2023-11-21T02:41:07;7.80;99.90
13344;DHT22;6741;48.964;9.406;2023-11-21T02:43:34;7.80;99.90
13344;DHT22;6741;48.964;9.406;2023-11-21T02:46:01;7.90;99.90
13344;DHT22;6741;48.964;9.406;2023-11-21T02:48:28;7.90;99.90
13344;DHT22;6741;48.964;9.406;2023-11-21T02:50:56;7.90;99.90
13344;DHT22;6741;48.964;9.406;2023-11-21T02:53:23;7.80;99.90
13344;DHT22;6741;48.964;9.406;2023-11-21T02:55:50;7.80;99.90
13344;DHT22;6741;48.964;9.406;2023-11-21T02:58:18;7.80;99.90
13344;DHT22;6741;48.964;9.406;2023-11-21T03:00:45;7.90;99.90
13344;DHT22;6741;48.964;9.406;2023-11-21T03:03:12;7.90;99.90
13344;DHT22;6741;48.964;9.406;2023-11-21T03:05:40;7.90;99.90
13344;DHT22;6741;48.964;9.406;2023-11-21T03:08:06;7.90;99.90
13344;DHT22;6741;48.964;9.406;2023-11-21T03:10:33;7.90;99.90
13344;DHT22;6741;48.964;9.406;2023-11-21T03:13:01;7.90;99.90
13344;DHT22;6741;48.964;9.406;2023-11-21T03:15:29;7.80;99.90
13344;DHT22;6741;48.964;9.406;2023-11-21T03:17:58;7.90;99.90
13344;DHT22;6741;48.964;9.406;2023-11-21T03:20:25;7.90;99.90
13344;DHT22;6741;48.964;9.406;2023-11-21T03:22:51;7.90;99.90
13344;DHT22;6741;48.964;9.406;2023-11-21T03:25:18;7.90;99.90
13344;DHT22;6741;48.964;9.406;2023-11-21T03:27:46;7.90;99.90
13344;DHT22;6741;48.964;9.406;2023-11-21T03:30:12;7.90;99.90
13344;DHT22;6741;48.964;9.406;2023-11-21T03:32:41;7.90;99.90
13344;DHT22;6741;48.964;9.406;2023-11-21T03:35:08;7.90;99.90
13344;DHT22;6741;48.964;9.406;2023-11-21T03:37:35;7.90;99.90
13344;DHT22;6741;48.964;9.406;2023-11-21T03:40:04;7.90;99.90
13344;DHT22;6741;48.964;9.406;2023-11-21T03:42:33;7.90;99.90
13344;DHT22;6741;48.964;9.406;2023-11-21T03:45:00;7.90;99.90
13344;DHT22;6741;48.964;9.406;2023-11-21T03:47:28;7.90;99.90
13344;DHT22;6741;48.964;9.406;2023-11-21T03:49:56;7.90;99.90
13344;DHT22;6741;48.964;9.406;2023-11-21T03:52:24;7.90;99.90
13344;DHT22;6741;48.964;9.406;2023-11-21T03:54:51;7.80;99.90
13344;DHT22;6741;48.964;9.406;2023-11-21T03:57:17;7.80;99.90
13344;DHT22;6741;48.964;9.406;2023-11-21T03:59:44;7.80;99.90
13344;DHT22;6741;48.964;9.406;2023-11-21T04:02:11;7.80;99.90
13344;DHT22;6741;48.964;9.406;2023-11-21T04:04:40;7.80;99.90
13344;DHT22;6741;48.964;9.406;2023-11-21T04:07:08;7.80;99.90
13344;DHT22;6741;48.964;9.406;2023-11-21T04:09:35;7.90;99.90
13344;DHT22;6741;48.964;9.406;2023-11-21T04:12:02;7.90;99.90
13344;DHT22;6741;48.964;9.406;2023-11-21T04:14:29;7.90;99.90
13344;DHT22;6741;48.964;9.406;2023-11-21T04:16:56;7.90;99.90
13344;DHT22;6741;48.964;9.406;2023-11-21T04:19:23;7.90;99.90
13344;DHT22;6741;48.964;9.406;2023-11-21T04:21:50;7.90;99.90
13344;DHT22;6741;48.964;9.406;2023-11-21T04:24:18;7.90;99.90
13344;DHT22;6741;48.964;9.406;2023-11-21T04:26:45;7.90;99.90
13344;DHT22;6741;48.964;9.406;2023-11-21T04:29:12;7.90;99.90
13344;DHT22;6741;48.964;9.406;2023-11-21T04:31:39;7.90;99.90
13344;DHT22;6741;48.964;9.406;2023-11-21T04:34:07;7.80;99.90
13344;DHT22;6741;48.964;9.406;2023-11-21T04:36:33;7.80;99.90
13344;DHT22;6741;48.964;9.406;2023-11-21T04:39:01;7.90;99.90
13344;DHT22;6741;48.964;9.406;2023-11-21T04:41:29;7.90;99.90
13344;DHT22;6741;48.964;9.406;2023-11-21T04:43:57;7.90;99.90
13344;DHT22;6741;48.964;9.406;2023-11-21T04:46:24;7.90;99.90
13344;DHT22;6741;48.964;9.406;2023-11-21T04:48:51;7.90;99.90
13344;DHT22;6741;48.964;9.406;2023-11-21T04:51:17;7.90;99.90
13344;DHT22;6741;48.964;9.406;2023-11-21T04:53:44;7.80;99.90
13344;DHT22;6741;48.964;9.406;2023-11-21T04:56:12;7.80;99.90
13344;DHT22;6741;48.964;9.406;2023-11-21T04:58:40;7.80;99.90
13344;DHT22;6741;48.964;9.406;2023-11-21T05:01:07;7.70;99.90
13344;DHT22;6741;48.964;9.406;2023-11-21T05:03:34;7.80;99.90
13344;DHT22;6741;48.964;9.406;2023-11-21T05:06:04;7.80;99.90
13344;DHT22;6741;48.964;9.406;2023-11-21T05:08:32;7.80;99.90
13344;DHT22;6741;48.964;9.406;2023-11-21T05:10:59;7.80;99.90
13344;DHT22;6741;48.964;9.406;2023-11-21T05:13:26;7.80;99.90
13344;DHT22;6741;48.964;9.406;2023-11-21T05:15:55;7.80;99.90
13344;DHT22;6741;48.964;9.406;2023-11-21T05:18:23;7.80;99.90
13344;DHT22;6741;48.964;9.406;2023-11-21T05:20:52;7.90;99.90
13344;DHT22;6741;48.964;9.406;2023-11-21T05:23:19;7.90;99.90
13344;DHT22;6741;48.964;9.406;2023-11-21T05:25:46;7.80;99.90
13344;DHT22;6741;48.964;9.406;2023-11-21T05:28:13;7.90;99.90
13344;DHT22;6741;48.964;9.406;2023-11-21T05:30:40;7.80;99.90
13344;DHT22;6741;48.964;9.406;2023-11-21T05:33:08;7.80;99.90
13344;DHT22;6741;48.964;9.406;2023-11-21T05:35:35;7.80;99.90
13344;DHT22;6741;48.964;9.406;2023-11-21T05:38:02;7.80;99.90
13344;DHT22;6741;48.964;9.406;2023-11-21T05:40:29;7.80;99.90
13344;DHT22;6741;48.964;9.406;2023-11-21T05:42:57;7.80;99.90
13344;DHT22;6741;48.964;9.406;2023-11-21T05:45:24;7.80;99.90
13344;DHT22;6741;48.964;9.406;2023-11-21T05:47:51;7.80;99.90
13344;DHT22;6741;48.964;9.406;2023-11-21T05:50:19;7.80;99.90
13344;DHT22;6741;48.964;9.406;2023-11-21T05:52:48;7.80;99.90
13344;DHT22;6741;48.964;9.406;2023-11-21T05:55:15;7.80;99.90
13344;DHT22;6741;48.964;9.406;2023-11-21T05:57:43;7.80;99.90
13344;DHT22;6741;48.964;9.406;2023-11-21T06:00:12;7.80;99.90
13344;DHT22;6741;48.964;9.406;2023-11-21T06:02:44;7.80;99.90
13344;DHT22;6741;48.964;9.406;2023-11-21T06:05:10;7.80;99.90
13344;DHT22;6741;48.964;9.406;2023-11-21T06:07:39;7.80;99.90
13344;DHT22;6741;48.964;9.406;2023-11-21T06:10:07;7.80;99.90
13344;DHT22;6741;48.964;9.406;2023-11-21T06:12:36;7.80;99.90
13344;DHT22;6741;48.964;9.406;2023-11-21T06:15:04;7.80;99.90
13344;DHT22;6741;48.964;9.406;2023-11-21T06:17:33;7.80;99.90
13344;DHT22;6741;48.964;9.406;2023-11-21T06:20:01;7.70;99.90
13344;DHT22;6741;48.964;9.406;2023-11-21T06:22:34;7.70;99.90
13344;DHT22;6741;48.964;9.406;2023-11-21T06:25:03;7.70;99.90
13344;DHT22;6741;48.964;9.406;2023-11-21T06:27:31;7.80;99.90
13344;DHT22;6741;48.964;9.406;2023-11-21T06:29:58;7.80;99.90
13344;DHT22;6741;48.964;9.406;2023-11-21T06:32:25;7.80;99.90
13344;DHT22;6741;48.964;9.406;2023-11-21T06:34:55;7.80;99.90
13344;DHT22;6741;48.964;9.406;2023-11-21T06:37:25;7.80;99.90
13344;DHT22;6741;48.964;9.406;2023-11-21T06:39:52;7.70;99.90
13344;DHT22;6741;48.964;9.406;2023-11-21T06:42:20;7.70;99.90
13344;DHT22;6741;48.964;9.406;2023-11-21T06:44:50;7.80;99.90
13344;DHT22;6741;48.964;9.406;2023-11-21T06:47:19;7.70;99.90
13344;DHT22;6741;48.964;9.406;2023-11-21T06:49:46;7.70;99.90
13344;DHT22;6741;48.964;9.406;2023-11-21T06:52:14;7.70;99.90
13344;DHT22;6741;48.964;9.406;2023-11-21T06:54:41;7.70;99.90
13344;DHT22;6741;48.964;9.406;2023-11-21T06:57:08;7.70;99.90
13344;DHT22;6741;48.964;9.406;2023-11-21T06:59:36;7.80;99.90
13344;DHT22;6741;48.964;9.406;2023-11-21T07:02:05;7.80;99.90
13344;DHT22;6741;48.964;9.406;2023-11-21T07:04:35;7.80;99.90
13344;DHT22;6741;48.964;9.406;2023-11-21T07:07:02;7.80;99.90
13344;DHT22;6741;48.964;9.406;2023-11-21T07:09:29;7.80;99.90
13344;DHT22;6741;48.964;9.406;2023-11-21T07:11:56;7.80;99.90
13344;DHT22;6741;48.964;9.406;2023-11-21T07:14:23;7.80;99.90
13344;DHT22;6741;48.964;9.406;2023-11-21T07:16:51;7.80;99.90
13344;DHT22;6741;48.964;9.406;2023-11-21T07:19:19;7.90;99.90
13344;DHT22;6741;48.964;9.406;2023-11-21T07:21:47;7.90;99.90
13344;DHT22;6741;48.964;9.406;2023-11-21T07:24:16;7.90;99.90
13344;DHT22;6741;48.964;9.406;2023-11-21T07:26:43;7.90;99.90
13344;DHT22;6741;48.964;9.406;2023-11-21T07:29:10;7.90;99.90
13344;DHT22;6741;48.964;9.406;2023-11-21T07:31:39;7.90;99.90
13344;DHT22;6741;48.964;9.406;2023-11-21T07:34:08;7.90;99.90
13344;DHT22;6741;48.964;9.406;2023-11-21T07:36:35;7.90;99.90
13344;DHT22;6741;48.964;9.406;2023-11-21T07:39:02;8.00;99.90
13344;DHT22;6741;48.964;9.406;2023-11-21T07:41:29;7.90;99.90
13344;DHT22;6741;48.964;9.406;2023-11-21T07:43:56;7.90;99.90
13344;DHT22;6741;48.964;9.406;2023-11-21T07:46:23;7.90;99.90
13344;DHT22;6741;48.964;9.406;2023-11-21T07:48:52;8.00;99.90
13344;DHT22;6741;48.964;9.406;2023-11-21T07:51:21;8.00;99.90
13344;DHT22;6741;48.964;9.406;2023-11-21T07:53:49;8.10;99.90
13344;DHT22;6741;48.964;9.406;2023-11-21T07:56:18;8.10;99.90
13344;DHT22;6741;48.964;9.406;2023-11-21T07:58:47;8.10;99.90
13344;DHT22;6741;48.964;9.406;2023-11-21T08:01:15;8.20;99.90
13344;DHT22;6741;48.964;9.406;2023-11-21T08:03:42;8.10;99.90
13344;DHT22;6741;48.964;9.406;2023-11-21T08:06:10;8.10;99.90
13344;DHT22;6741;48.964;9.406;2023-11-21T08:08:38;8.20;99.90
13344;DHT22;6741;48.964;9.406;2023-11-21T08:11:05;8.10;99.90
13344;DHT22;6741;48.964;9.406;2023-11-21T08:13:33;8.10;99.90
13344;DHT22;6741;48.964;9.406;2023-11-21T08:16:00;8.10;99.90
13344;DHT22;6741;48.964;9.406;2023-11-21T08:18:30;8.10;99.90
13344;DHT22;6741;48.964;9.406;2023-11-21T08:20:57;8.20;99.90
13344;DHT22;6741;48.964;9.406;2023-11-21T08:23:24;8.20;99.90
13344;DHT22;6741;48.964;9.406;2023-11-21T08:25:53;8.20;99.90
13344;DHT22;6741;48.964;9.406;2023-11-21T08:28:20;8.30;99.90
13344;DHT22;6741;48.964;9.406;2023-11-21T08:30:49;8.40;99.90
13344;DHT22;6741;48.964;9.406;2023-11-21T08:33:16;8.40;99.90
13344;DHT22;6741;48.964;9.406;2023-11-21T08:35:43;8.60;99.90
13344;DHT22;6741;48.964;9.406;2023-11-21T08:38:11;8.70;99.90
13344;DHT22;6741;48.964;9.406;2023-11-21T08:40:38;8.90;99.90
13344;DHT22;6741;48.964;9.406;2023-11-21T08:43:06;9.10;99.90
13344;DHT22;6741;48.964;9.406;2023-11-21T08:45:33;9.30;99.90
13344;DHT22;6741;48.964;9.406;2023-11-21T08:48:00;9.40;99.90
13344;DHT22;6741;48.964;9.406;2023-11-21T08:50:27;9.50;99.90
13344;DHT22;6741;48.964;9.406;2023-11-21T08:52:54;9.50;99.90
13344;DHT22;6741;48.964;9.406;2023-11-21T08:55:21;9.50;99.90
13344;DHT22;6741;48.964;9.406;2023-11-21T08:57:48;9.50;99.90
13344;DHT22;6741;48.964;9.406;2023-11-21T09:00:17;9.40;99.90
13344;DHT22;6741;48.964;9.406;2023-11-21T09:02:44;9.40;99.90
13344;DHT22;6741;48.964;9.406;2023-11-21T09:05:13;9.50;99.90
13344;DHT22;6741;48.964;9.406;2023-11-21T09:07:41;9.40;99.90
13344;DHT22;6741;48.964;9.406;2023-11-21T09:10:08;9.40;99.90
13344;DHT22;6741;48.964;9.406;2023-11-21T09:12:36;9.40;99.90
13344;DHT22;6741;48.964;9.406;2023-11-21T09:15:04;9.30;99.90
13344;DHT22;6741;48.964;9.406;2023-11-21T09:17:33;9.20;99.90
13344;DHT22;6741;48.964;9.406;2023-11-21T09:20:00;9.10;99.90
13344;DHT22;6741;48.964;9.406;2023-11-21T09:22:29;9.10;99.90
13344;DHT22;6741;48.964;9.406;2023-11-21T09:24:57;8.90;99.90
13344;DHT22;6741;48.964;9.406;2023-11-21T09:27:24;8.80;99.90
13344;DHT22;6741;48.964;9.406;2023-11-21T09:29:51;8.80;99.90
13344;DHT22;6741;48.964;9.406;2023-11-21T09:32:18;8.90;99.90
13344;DHT22;6741;48.964;9.406;2023-11-21T09:34:48;8.80;99.90
13344;DHT22;6741;48.964;9.406;2023-11-21T09:37:15;8.90;99.90
13344;DHT22;6741;48.964;9.406;2023-11-21T09:39:42;8.90;99.90
13344;DHT22;6741;48.964;9.406;2023-11-21T09:42:11;9.00;99.90
13344;DHT22;6741;48.964;9.406;2023-11-21T09:44:46;9.10;99.90
13344;DHT22;6741;48.964;9.406;2023-11-21T09:47:15;9.30;99.90
13344;DHT22;6741;48.964;9.406;2023-11-21T09:49:46;9.30;99.90
13344;DHT22;6741;48.964;9.406;2023-11-21T09:52:22;9.30;99.90
13344;DHT22;6741;48.964;9.406;2023-11-21T09:54:51;9.30;99.90
13344;DHT22;6741;48.964;9.406;2023-11-21T09:57:19;9.10;99.90
13344;DHT22;6741;48.964;9.406;2023-11-21T09:59:50;9.20;99.90
13344;DHT22;6741;48.964;9.406;2023-11-21T10:02:17;9.30;99.90
13344;DHT22;6741;48.964;9.406;2023-11-21T10:04:46;9.30;99.90
13344;DHT22;6741;48.964;9.406;2023-11-21T10:07:17;9.30;99.90
13344;DHT22;6741;48.964;9.406;2023-11-21T10:09:46;9.20;99.90
13344;DHT22;6741;48.964;9.406;2023-11-21T10:12:15;9.20;99.90
13344;DHT22;6741;48.964;9.406;2023-11-21T10:14:42;9.30;99.90
13344;DHT22;6741;48.964;9.406;2023-11-21T10:17:12;9.40;99.90
13344;DHT22;6741;48.964;9.406;2023-11-21T10:19:42;9.40;99.90
13344;DHT22;6741;48.964;9.406;2023-11-21T10:22:10;9.30;99.90
13344;DHT22;6741;48.964;9.406;2023-11-21T10:24:38;9.40;99.90
13344;DHT22;6741;48.964;9.406;2023-11-21T10:27:05;9.50;99.90
13344;DHT22;6741;48.964;9.406;2023-11-21T10:29:33;9.50;99.90
13344;DHT22;6741;48.964;9.406;2023-11-21T10:32:02;9.40;99.90
13344;DHT22;6741;48.964;9.406;2023-11-21T10:34:29;9.70;99.90
13344;DHT22;6741;48.964;9.406;2023-11-21T10:36:56;10.00;99.90
13344;DHT22;6741;48.964;9.406;2023-11-21T10:39:24;10.40;99.90
13344;DHT22;6741;48.964;9.406;2023-11-21T10:41:57;10.30;99.90
13344;DHT22;6741;48.964;9.406;2023-11-21T10:44:24;10.30;99.90
13344;DHT22;6741;48.964;9.406;2023-11-21T10:46:53;10.30;99.90
13344;DHT22;6741;48.964;9.406;2023-11-21T10:49:22;10.30;99.90
13344;DHT22;6741;48.964;9.406;2023-11-21T10:51:50;10.40;99.90
13344;DHT22;6741;48.964;9.406;2023-11-21T10:54:19;10.60;99.90
13344;DHT22;6741;48.964;9.406;2023-11-21T10:56:48;10.20;99.90
13344;DHT22;6741;48.964;9.406;2023-11-21T10:59:18;10.00;99.90
13344;DHT22;6741;48.964;9.406;2023-11-21T11:01:47;9.90;99.90
13344;DHT22;6741;48.964;9.406;2023-11-21T11:04:18;9.90;99.90
13344;DHT22;6741;48.964;9.406;2023-11-21T11:06:51;9.80;99.90
13344;DHT22;6741;48.964;9.406;2023-11-21T11:09:18;9.90;99.90
13344;DHT22;6741;48.964;9.406;2023-11-21T11:11:45;9.80;99.90
13344;DHT22;6741;48.964;9.406;2023-11-21T11:14:13;9.90;99.90
13344;DHT22;6741;48.964;9.406;2023-11-21T11:16:41;9.70;99.90
13344;DHT22;6741;48.964;9.406;2023-11-21T11:19:09;9.80;99.90
13344;DHT22;6741;48.964;9.406;2023-11-21T11:21:49;9.90;99.90
13344;DHT22;6741;48.964;9.406;2023-11-21T11:24:42;9.90;99.90
13344;DHT22;6741;48.964;9.406;2023-11-21T11:27:18;9.90;99.90
13344;DHT22;6741;48.964;9.406;2023-11-21T11:29:59;9.90;99.90
13344;DHT22;6741;48.964;9.406;2023-11-21T11:32:47;9.90;99.90
13344;DHT22;6741;48.964;9.406;2023-11-21T11:35:22;9.80;99.90
13344;DHT22;6741;48.964;9.406;2023-11-21T11:37:51;9.80;99.90
13344;DHT22;6741;48.964;9.406;2023-11-21T11:40:18;9.80;99.90
13344;DHT22;6741;48.964;9.406;2023-11-21T11:42:56;9.80;99.90
13344;DHT22;6741;48.964;9.406;2023-11-21T11:45:32;9.90;99.90
13344;DHT22;6741;48.964;9.406;2023-11-21T11:48:00;9.90;99.90
13344;DHT22;6741;48.964;9.406;2023-11-21T11:50:29;9.90;99.90
13344;DHT22;6741;48.964;9.406;2023-11-21T11:53:12;10.40;99.90
13344;DHT22;6741;48.964;9.406;2023-11-21T11:55:39;11.00;99.90
13344;DHT22;6741;48.964;9.406;2023-11-21T11:58:06;12.60;99.90
13344;DHT22;6741;48.964;9.406;2023-11-21T12:00:34;13.70;35.10
13344;DHT22;6741;48.964;9.406;2023-11-21T12:03:06;13.20;54.20
13344;DHT22;6741;48.964;9.406;2023-11-21T12:05:34;13.80;65.60
13344;DHT22;6741;48.964;9.406;2023-11-21T12:08:05;14.20;1.00
13344;DHT22;6741;48.964;9.406;2023-11-21T12:10:34;13.70;1.00
13344;DHT22;6741;48.964;9.406;2023-11-21T12:13:02;13.10;1.00
13344;DHT22;6741;48.964;9.406;2023-11-21T12:15:31;12.60;32.80
13344;DHT22;6741;48.964;9.406;2023-11-21T12:17:57;11.90;79.20
13344;DHT22;6741;48.964;9.406;2023-11-21T12:20:27;11.50;99.90
13344;DHT22;6741;48.964;9.406;2023-11-21T12:22:55;11.10;99.90
13344;DHT22;6741;48.964;9.406;2023-11-21T12:25:25;11.00;99.90
13344;DHT22;6741;48.964;9.406;2023-11-21T12:27:55;10.80;99.90
13344;DHT22;6741;48.964;9.406;2023-11-21T12:30:24;10.60;99.90
13344;DHT22;6741;48.964;9.406;2023-11-21T12:32:54;10.40;99.90
13344;DHT22;6741;48.964;9.406;2023-11-21T12:35:23;10.20;99.90
13344;DHT22;6741;48.964;9.406;2023-11-21T12:37:52;10.10;99.90
13344;DHT22;6741;48.964;9.406;2023-11-21T12:40:19;10.10;99.90
13344;DHT22;6741;48.964;9.406;2023-11-21T12:42:50;10.10;99.90
13344;DHT22;6741;48.964;9.406;2023-11-21T12:45:20;10.10;99.90
13344;DHT22;6741;48.964;9.406;2023-11-21T12:47:48;10.20;99.90
13344;DHT22;6741;48.964;9.406;2023-11-21T12:50:19;10.30;99.90
13344;DHT22;6741;48.964;9.406;2023-11-21T12:52:51;10.30;99.90
13344;DHT22;6741;48.964;9.406;2023-11-21T12:55:20;10.20;99.90
13344;DHT22;6741;48.964;9.406;2023-11-21T12:57:48;10.00;99.90
13344;DHT22;6741;48.964;9.406;2023-11-21T13:00:18;9.90;99.90
13344;DHT22;6741;48.964;9.406;2023-11-21T13:02:53;10.00;99.90
13344;DHT22;6741;48.964;9.406;2023-11-21T13:05:26;10.00;99.90
13344;DHT22;6741;48.964;9.406;2023-11-21T13:07:56;10.00;99.90
13344;DHT22;6741;48.964;9.406;2023-11-21T13:10:24;9.90;99.90
13344;DHT22;6741;48.964;9.406;2023-11-21T13:12:55;9.80;99.90
13344;DHT22;6741;48.964;9.406;2023-11-21T13:15:23;9.80;99.90
13344;DHT22;6741;48.964;9.406;2023-11-21T13:17:51;9.80;99.90
13344;DHT22;6741;48.964;9.406;2023-11-21T13:20:19;9.80;99.90
13344;DHT22;6741;48.964;9.406;2023-11-21T13:22:48;9.70;99.90
13344;DHT22;6741;48.964;9.406;2023-11-21T13:25:17;9.70;99.90
13344;DHT22;6741;48.964;9.406;2023-11-21T13:27:45;9.70;99.90
13344;DHT22;6741;48.964;9.406;2023-11-21T13:30:13;9.70;99.90
13344;DHT22;6741;48.964;9.406;2023-11-21T13:32:46;9.70;99.90
13344;DHT22;6741;48.964;9.406;2023-11-21T13:35:16;9.70;99.90
13344;DHT22;6741;48.964;9.406;2023-11-21T13:37:48;9.70;99.90
13344;DHT22;6741;48.964;9.406;2023-11-21T13:40:21;9.80;99.90
13344;DHT22;6741;48.964;9.406;2023-11-21T13:42:51;10.00;99.90
13344;DHT22;6741;48.964;9.406;2023-11-21T13:45:21;11.20;99.90
13344;DHT22;6741;48.964;9.406;2023-11-21T13:47:49;12.30;99.90
13344;DHT22;6741;48.964;9.406;2023-11-21T13:50:18;14.70;1.00
13344;DHT22;6741;48.964;9.406;2023-11-21T13:52:49;15.50;32.10
13344;DHT22;6741;48.964;9.406;2023-11-21T13:55:17;16.30;1.00
13344;DHT22;6741;48.964;9.406;2023-11-21T13:57:45;17.00;99.90
13344;DHT22;6741;48.964;9.406;2023-11-21T14:00:16;16.80;1.00
13344;DHT22;6741;48.964;9.406;2023-11-21T14:02:56;16.70;1.00
13344;DHT22;6741;48.964;9.406;2023-11-21T14:05:26;16.90;1.00
13344;DHT22;6741;48.964;9.406;2023-11-21T14:07:55;16.40;1.00
13344;DHT22;6741;48.964;9.406;2023-11-21T14:10:28;16.40;23.20
13344;DHT22;6741;48.964;9.406;2023-11-21T14:13:04;16.60;99.90
13344;DHT22;6741;48.964;9.406;2023-11-21T14:15:31;17.10;99.90
13344;DHT22;6741;48.964;9.406;2023-11-21T14:18:03;16.20;1.00
13344;DHT22;6741;48.964;9.406;2023-11-21T14:20:33;14.90;99.90
13344;DHT22;6741;48.964;9.406;2023-11-21T14:23:02;13.50;1.00
13344;DHT22;6741;48.964;9.406;2023-11-21T14:25:29;12.40;1.00
13344;DHT22;6741;48.964;9.406;2023-11-21T14:27:56;11.90;53.20
13344;DHT22;6741;48.964;9.406;2023-11-21T14:30:24;11.50;99.90
13344;DHT22;6741;48.964;9.406;2023-11-21T14:32:51;11.10;99.90
13344;DHT22;6741;48.964;9.406;2023-11-21T14:35:18;10.80;99.90
13344;DHT22;6741;48.964;9.406;2023-11-21T14:37:46;10.50;99.90
13344;DHT22;6741;48.964;9.406;2023-11-21T14:40:12;10.40;99.90
13344;DHT22;6741;48.964;9.406;2023-11-21T14:42:42;10.30;99.90
13344;DHT22;6741;48.964;9.406;2023-11-21T14:45:12;10.10;99.90
13344;DHT22;6741;48.964;9.406;2023-11-21T14:47:43;9.90;99.90
13344;DHT22;6741;48.964;9.406;2023-11-21T14:50:16;9.80;99.90
13344;DHT22;6741;48.964;9.406;2023-11-21T14:52:57;9.70;99.90
13344;DHT22;6741;48.964;9.406;2023-11-21T14:55:24;9.60;99.90
13344;DHT22;6741;48.964;9.406;2023-11-21T14:57:57;9.60;99.90
13344;DHT22;6741;48.964;9.406;2023-11-21T15:00:28;9.60;99.90
13344;DHT22;6741;48.964;9.406;2023-11-21T15:03:13;9.60;99.90
13344;DHT22;6741;48.964;9.406;2023-11-21T15:06:04;9.50;99.90
13344;DHT22;6741;48.964;9.406;2023-11-21T15:08:45;9.40;99.90
13344;DHT22;6741;48.964;9.406;2023-11-21T15:11:19;9.40;99.90
13344;DHT22;6741;48.964;9.406;2023-11-21T15:13:47;9.30;99.90
13344;DHT22;6741;48.964;9.406;2023-11-21T15:16:16;9.30;99.90
13344;DHT22;6741;48.964;9.406;2023-11-21T15:18:45;9.10;99.90
13344;DHT22;6741;48.964;9.406;2023-11-21T15:21:12;9.10;99.90
13344;DHT22;6741;48.964;9.406;2023-11-21T15:23:39;9.10;99.90
13344;DHT22;6741;48.964;9.406;2023-11-21T15:26:07;9.00;99.90
13344;DHT22;6741;48.964;9.406;2023-11-21T15:28:35;8.90;99.90
13344;DHT22;6741;48.964;9.406;2023-11-21T15:31:02;8.90;99.90
13344;DHT22;6741;48.964;9.406;2023-11-21T15:33:30;8.80;99.90
13344;DHT22;6741;48.964;9.406;2023-11-21T15:35:59;8.80;99.90
13344;DHT22;6741;48.964;9.406;2023-11-21T15:38:26;8.80;99.90
13344;DHT22;6741;48.964;9.406;2023-11-21T15:40:54;8.70;99.90
13344;DHT22;6741;48.964;9.406;2023-11-21T15:43:24;8.70;99.90
13344;DHT22;6741;48.964;9.406;2023-11-21T15:45:53;8.70;99.90
13344;DHT22;6741;48.964;9.406;2023-11-21T15:48:21;8.70;99.90
13344;DHT22;6741;48.964;9.406;2023-11-21T15:50:48;8.60;99.90
13344;DHT22;6741;48.964;9.406;2023-11-21T15:53:19;8.50;99.90
13344;DHT22;6741;48.964;9.406;2023-11-21T15:55:47;8.40;99.90
13344;DHT22;6741;48.964;9.406;2023-11-21T15:58:14;8.30;99.90
13344;DHT22;6741;48.964;9.406;2023-11-21T16:00:41;8.20;99.90
13344;DHT22;6741;48.964;9.406;2023-11-21T16:03:09;8.10;99.90
13344;DHT22;6741;48.964;9.406;2023-11-21T16:05:37;7.90;99.90
13344;DHT22;6741;48.964;9.406;2023-11-21T16:08:05;7.80;99.90